Time;durP1;ratioP1;P1;durP2;ratioP2;P2;SDS_P1;SDS_P2;PMS_P1;PMS_P2;Temp;Humidity;BMP_temperature;BMP_pressure;BME280_temperature;BME280_humidity;BME280_pressure;Samples;Min_cycle;Max_cycle;Signal;HPM_P1;HPM_P2
2022/07/19 00:01:14;;;;;;;2.28;1.40;;;21.60;95.20;;;;;;5030725;28;20498;-67
2022/07/19 00:03:39;;;;;;;2.80;1.40;;;21.60;95.50;;;;;;5030299;28;20036;-68
2022/07/19 00:06:05;;;;;;;6.85;1.95;;;21.60;95.60;;;;;;5029253;28;20061;-69
2022/07/19 00:08:30;;;;;;;5.57;2.08;;;21.50;95.80;;;;;;5030512;28;20486;-69
2022/07/19 00:10:56;;;;;;;3.40;1.98;;;21.50;96.20;;;;;;5029858;28;20060;-69
2022/07/19 00:13:22;;;;;;;12.48;1.80;;;21.40;95.70;;;;;;5029250;28;20112;-66
2022/07/19 00:15:48;;;;;;;4.50;1.67;;;21.40;95.90;;;;;;5030492;28;20032;-68
2022/07/19 00:18:14;;;;;;;4.65;1.75;;;21.40;96.10;;;;;;5030441;28;20042;-66
2022/07/19 00:20:40;;;;;;;4.40;1.60;;;21.30;96.10;;;;;;5030399;28;20502;-69
2022/07/19 00:23:06;;;;;;;2.78;1.10;;;21.30;96.20;;;;;;5028665;28;20025;-68
2022/07/19 00:25:31;;;;;;;3.42;1.75;;;21.20;96.70;;;;;;5031039;28;20030;-67
2022/07/19 00:27:57;;;;;;;2.90;1.38;;;21.20;96.70;;;;;;5030235;28;20033;-67
2022/07/19 00:30:22;;;;;;;9.50;1.65;;;21.20;96.60;;;;;;5024905;28;20502;-66
2022/07/19 00:32:48;;;;;;;6.18;1.90;;;21.10;97.00;;;;;;5029749;28;20161;-68
2022/07/19 00:35:14;;;;;;;6.00;1.60;;;21.10;97.20;;;;;;5030267;28;20021;-65
2022/07/19 00:37:39;;;;;;;5.43;1.58;;;21.10;97.60;;;;;;5030028;28;20460;-68
2022/07/19 00:40:05;;;;;;;5.47;1.63;;;21.10;97.30;;;;;;5028692;28;20029;-65
2022/07/19 00:42:31;;;;;;;2.00;1.13;;;21.00;97.30;;;;;;5030085;28;20486;-69
2022/07/19 00:44:56;;;;;;;3.35;1.55;;;21.00;97.40;;;;;;5029829;28;20056;-69
2022/07/19 00:47:23;;;;;;;2.35;1.30;;;21.00;97.60;;;;;;5029165;28;20502;-68
2022/07/19 00:49:48;;;;;;;3.63;1.80;;;21.00;97.70;;;;;;5029837;28;20038;-69
2022/07/19 00:52:15;;;;;;;2.70;1.42;;;20.90;97.90;;;;;;5033756;28;20120;-66
2022/07/19 00:54:42;;;;;;;2.42;1.25;;;20.90;97.90;;;;;;5029646;28;20025;-69
2022/07/19 00:57:09;;;;;;;3.72;1.73;;;20.90;98.10;;;;;;5028352;28;20026;-68
2022/07/19 00:59:36;;;;;;;2.72;1.13;;;20.90;98.00;;;;;;5029481;28;20486;-69
2022/07/19 01:02:02;;;;;;;3.75;1.60;;;20.90;97.50;;;;;;5029719;28;20045;-67
2022/07/19 01:04:28;;;;;;;4.68;1.40;;;20.90;97.40;;;;;;5027909;28;20536;-71
2022/07/19 01:06:54;;;;;;;5.85;1.60;;;20.80;97.40;;;;;;5028071;28;20033;-69
2022/07/19 01:09:19;;;;;;;2.45;1.20;;;20.80;97.50;;;;;;5029977;28;20508;-69
2022/07/19 01:11:45;;;;;;;4.00;1.52;;;20.80;97.70;;;;;;5029457;28;20513;-68
2022/07/19 01:14:11;;;;;;;4.55;1.45;;;20.80;97.80;;;;;;5029070;28;20029;-69
2022/07/19 01:16:42;;;;;;;2.55;1.17;;;20.70;98.00;;;;;;5029547;28;20056;-69
2022/07/19 01:19:07;;;;;;;3.95;1.90;;;20.70;98.20;;;;;;5029369;28;20112;-69
2022/07/19 01:21:33;;;;;;;2.72;1.25;;;20.70;98.20;;;;;;5028071;28;20152;-70
2022/07/19 01:23:59;;;;;;;3.28;1.67;;;20.60;98.30;;;;;;5027808;28;20045;-66
2022/07/19 01:26:25;;;;;;;3.67;1.48;;;20.60;98.40;;;;;;5028110;28;20504;-67
2022/07/19 01:28:50;;;;;;;3.47;1.65;;;20.60;98.40;;;;;;5028897;28;20033;-69
2022/07/19 01:31:16;;;;;;;2.70;1.60;;;20.50;98.70;;;;;;5025335;28;20038;-67
2022/07/19 01:33:44;;;;;;;2.58;1.48;;;20.50;98.90;;;;;;5028919;28;20108;-68
2022/07/19 01:36:10;;;;;;;4.35;1.75;;;20.50;98.80;;;;;;5028942;28;20432;-68
2022/07/19 01:38:37;;;;;;;4.40;1.50;;;20.40;98.90;;;;;;5028976;28;20026;-69
2022/07/19 01:41:03;;;;;;;3.40;1.33;;;20.40;98.90;;;;;;5028887;28;20055;-69
2022/07/19 01:43:28;;;;;;;4.88;1.17;;;20.40;98.70;;;;;;5028923;28;20497;-69
2022/07/19 01:45:54;;;;;;;4.13;1.38;;;20.50;98.30;;;;;;5028408;28;20452;-69
2022/07/19 01:48:20;;;;;;;2.92;1.50;;;20.50;98.20;;;;;;5027849;28;20124;-69
2022/07/19 01:50:46;;;;;;;4.38;1.45;;;20.40;98.10;;;;;;5031547;28;20045;-67
2022/07/19 01:53:12;;;;;;;2.50;1.75;;;20.40;98.00;;;;;;5028758;28;20103;-69
2022/07/19 01:55:37;;;;;;;2.45;1.13;;;20.40;97.90;;;;;;5028733;28;20413;-69
2022/07/19 01:58:04;;;;;;;2.35;1.30;;;20.40;97.80;;;;;;5027051;28;20032;-69
2022/07/19 02:00:30;;;;;;;3.15;1.38;;;20.40;97.70;;;;;;5028715;28;20057;-68
2022/07/19 02:02:55;;;;;;;4.82;1.63;;;20.40;97.50;;;;;;5026538;28;20067;-67
2022/07/19 02:05:21;;;;;;;4.43;1.25;;;20.40;97.70;;;;;;5026862;28;20397;-69
2022/07/19 02:07:47;;;;;;;5.78;1.38;;;20.50;96.90;;;;;;5028818;28;20061;-69
2022/07/19 02:10:13;;;;;;;2.97;1.33;;;20.50;96.60;;;;;;5028513;28;20045;-69
2022/07/19 02:12:39;;;;;;;3.20;1.10;;;20.60;96.10;;;;;;5027905;28;20036;-69
2022/07/19 02:15:05;;;;;;;2.85;1.50;;;20.70;96.30;;;;;;5028513;28;20436;-69
2022/07/19 02:17:30;;;;;;;1.50;0.93;;;20.70;96.40;;;;;;5028801;28;20041;-69
2022/07/19 02:19:56;;;;;;;3.00;1.33;;;20.70;96.30;;;;;;5027925;28;20029;-68
2022/07/19 02:22:22;;;;;;;3.22;0.77;;;20.70;96.00;;;;;;5027304;28;20076;-67
2022/07/19 02:24:48;;;;;;;2.92;1.25;;;20.70;96.10;;;;;;5029024;28;20034;-67
2022/07/19 02:27:13;;;;;;;3.58;1.40;;;20.70;95.60;;;;;;5024094;28;20072;-69
2022/07/19 02:29:39;;;;;;;4.28;0.80;;;20.80;94.90;;;;;;5028028;28;20048;-69
2022/07/19 02:32:05;;;;;;;5.70;1.15;;;20.80;95.40;;;;;;5028250;28;20195;-70
2022/07/19 02:34:31;;;;;;;2.72;1.13;;;20.90;95.70;;;;;;5028539;28;20120;-65
2022/07/19 02:36:57;;;;;;;4.43;1.73;;;20.80;96.00;;;;;;5028039;28;20129;-69
2022/07/19 02:39:22;;;;;;;5.85;1.50;;;20.80;96.30;;;;;;5026917;28;20124;-69
2022/07/19 02:41:48;;;;;;;2.22;1.20;;;20.80;96.00;;;;;;5027915;28;20065;-67
2022/07/19 02:44:13;;;;;;;6.03;1.85;;;20.80;95.20;;;;;;5027679;28;20053;-66
2022/07/19 02:46:39;;;;;;;5.20;1.50;;;21.00;94.90;;;;;;5027587;28;20045;-69
2022/07/19 02:49:04;;;;;;;5.50;1.10;;;20.90;95.10;;;;;;5027815;28;20044;-69
2022/07/19 02:51:30;;;;;;;2.78;1.20;;;20.90;95.50;;;;;;5031147;28;20033;-67
2022/07/19 02:53:55;;;;;;;2.63;0.98;;;20.90;95.70;;;;;;5026894;28;20033;-69
2022/07/19 02:56:21;;;;;;;2.63;1.20;;;20.80;95.80;;;;;;5027879;28;20033;-69
2022/07/19 02:58:46;;;;;;;3.70;1.00;;;20.80;96.00;;;;;;5027356;28;20033;-68
2022/07/19 03:01:12;;;;;;;4.40;1.65;;;20.80;96.20;;;;;;5026613;28;20175;-69
2022/07/19 03:03:43;;;;;;;3.25;1.30;;;20.80;96.10;;;;;;5027444;28;20040;-69
2022/07/19 03:06:09;;;;;;;6.00;1.58;;;20.80;96.20;;;;;;5026408;28;20473;-70
2022/07/19 03:08:35;;;;;;;4.95;2.03;;;20.70;96.50;;;;;;5027476;28;20160;-69
2022/07/19 03:11:00;;;;;;;3.28;1.38;;;20.70;96.60;;;;;;5028240;28;20504;-67
2022/07/19 03:13:26;;;;;;;3.25;1.42;;;20.70;96.70;;;;;;5031884;28;20099;-70
2022/07/19 03:15:51;;;;;;;4.75;1.38;;;20.60;97.00;;;;;;5031389;28;20037;-69
2022/07/19 03:18:17;;;;;;;3.47;1.45;;;20.50;97.10;;;;;;5031844;28;20115;-69
2022/07/19 03:20:42;;;;;;;2.60;1.60;;;20.50;97.30;;;;;;5029987;28;20049;-69
2022/07/19 03:23:08;;;;;;;4.97;1.70;;;20.40;97.70;;;;;;5029940;28;20026;-68
2022/07/19 03:25:34;;;;;;;4.30;1.88;;;20.40;97.90;;;;;;5031926;28;20040;-67
2022/07/19 03:27:59;;;;;;;3.15;1.40;;;20.40;97.90;;;;;;5031382;28;20050;-70
2022/07/19 03:30:25;;;;;;;2.55;1.38;;;20.30;98.20;;;;;;5031450;28;20030;-66
2022/07/19 03:32:51;;;;;;;3.80;1.70;;;20.30;98.40;;;;;;5032717;28;20676;-68
2022/07/19 03:35:16;;;;;;;5.88;2.22;;;20.30;98.20;;;;;;5032602;28;21552;-67
2022/07/19 03:37:43;;;;;;;13.77;2.15;;;20.30;97.50;;;;;;5033125;28;20057;-67
2022/07/19 03:40:09;;;;;;;7.05;2.17;;;20.40;97.70;;;;;;5032322;28;20076;-69
2022/07/19 03:42:35;;;;;;;6.75;2.42;;;20.40;97.70;;;;;;5032577;28;20026;-67
2022/07/19 03:45:00;;;;;;;4.13;1.70;;;20.40;97.60;;;;;;5029817;28;20430;-69
2022/07/19 03:47:26;;;;;;;8.75;1.60;;;20.50;97.40;;;;;;5033544;28;20111;-68
2022/07/19 03:49:51;;;;;;;5.40;1.80;;;20.40;97.60;;;;;;5032509;28;20052;-69
2022/07/19 03:52:17;;;;;;;6.68;1.98;;;20.40;97.70;;;;;;5033641;28;20036;-68
2022/07/19 03:54:42;;;;;;;5.75;1.98;;;20.40;97.80;;;;;;5032510;28;20061;-69
2022/07/19 03:57:08;;;;;;;6.00;1.92;;;20.50;97.70;;;;;;5024587;28;20660;-68
2022/07/19 03:59:34;;;;;;;4.28;1.80;;;20.50;97.80;;;;;;5032485;28;20499;-65
2022/07/19 04:01:59;;;;;;;4.38;1.98;;;20.40;97.80;;;;;;5031009;28;20574;-69
2022/07/19 04:04:25;;;;;;;6.93;1.92;;;20.40;97.80;;;;;;5032029;28;20049;-68
2022/07/19 04:06:50;;;;;;;3.75;1.50;;;20.40;97.90;;;;;;5032505;28;20049;-69
2022/07/19 04:09:16;;;;;;;4.55;1.98;;;20.30;97.80;;;;;;5032979;28;20116;-69
2022/07/19 04:11:41;;;;;;;3.38;1.58;;;20.30;98.00;;;;;;5032164;28;20527;-69
2022/07/19 04:14:07;;;;;;;4.30;2.08;;;20.30;98.40;;;;;;5032298;28;20033;-69
2022/07/19 04:16:32;;;;;;;6.63;2.17;;;20.30;98.50;;;;;;5031320;28;20029;-68
2022/07/19 04:18:58;;;;;;;3.50;1.92;;;20.30;98.60;;;;;;5030685;28;20033;-70
2022/07/19 04:21:23;;;;;;;9.20;1.75;;;20.30;98.10;;;;;;5032306;28;20029;-66
2022/07/19 04:23:49;;;;;;;3.83;1.85;;;20.30;98.20;;;;;;5030268;28;20402;-66
2022/07/19 04:26:15;;;;;;;3.08;1.60;;;20.30;97.90;;;;;;5028404;28;20505;-71
2022/07/19 04:28:40;;;;;;;3.95;1.73;;;20.30;98.00;;;;;;5030420;28;20124;-70
2022/07/19 04:31:06;;;;;;;6.15;2.03;;;20.30;98.20;;;;;;5029206;28;20122;-66
2022/07/19 04:33:31;;;;;;;8.00;1.88;;;20.40;97.40;;;;;;5030079;28;20026;-70
2022/07/19 04:35:57;;;;;;;6.35;2.40;;;20.50;96.70;;;;;;5027788;28;20041;-67
2022/07/19 04:38:23;;;;;;;8.63;1.67;;;20.60;96.50;;;;;;5029532;28;20038;-69
2022/07/19 04:40:49;;;;;;;5.45;1.50;;;20.70;97.00;;;;;;5026506;28;20532;-69
2022/07/19 04:43:16;;;;;;;7.38;1.60;;;20.70;96.80;;;;;;5027651;28;20041;-70
2022/07/19 04:45:42;;;;;;;3.20;1.52;;;20.80;96.30;;;;;;5026803;28;20032;-68
2022/07/19 04:48:08;;;;;;;7.97;1.73;;;20.80;96.20;;;;;;5031137;28;20029;-67
2022/07/19 04:50:33;;;;;;;3.08;1.00;;;20.80;96.60;;;;;;5025809;28;20030;-69
2022/07/19 04:52:59;;;;;;;11.48;2.45;;;20.80;96.40;;;;;;5028272;28;20032;-69
2022/07/19 04:55:24;;;;;;;4.10;1.60;;;20.90;96.00;;;;;;5028193;28;20117;-70
2022/07/19 04:57:50;;;;;;;2.78;1.33;;;21.00;95.40;;;;;;5029152;28;20079;-66
2022/07/19 05:00:16;;;;;;;2.92;1.05;;;21.00;95.00;;;;;;5028789;28;20025;-68
2022/07/19 05:02:41;;;;;;;2.25;1.08;;;21.10;94.90;;;;;;5028220;28;20034;-67
2022/07/19 05:05:07;;;;;;;7.82;1.50;;;21.10;94.80;;;;;;5026937;28;20085;-70
2022/07/19 05:07:33;;;;;;;4.40;1.17;;;21.10;94.90;;;;;;5026943;28;20048;-68
2022/07/19 05:09:58;;;;;;;4.18;1.20;;;21.20;95.10;;;;;;5027132;28;20065;-69
2022/07/19 05:12:24;;;;;;;6.93;1.10;;;21.20;95.20;;;;;;5027827;28;20118;-69
2022/07/19 05:14:49;;;;;;;6.22;1.25;;;21.30;94.40;;;;;;5029123;28;20132;-66
2022/07/19 05:17:15;;;;;;;3.00;0.90;;;21.30;94.50;;;;;;5025307;28;20112;-66
2022/07/19 05:19:41;;;;;;;3.00;1.27;;;21.40;94.70;;;;;;5028470;28;20116;-69
2022/07/19 05:22:07;;;;;;;4.28;1.48;;;21.50;94.50;;;;;;5027220;28;20033;-66
2022/07/19 05:24:33;;;;;;;2.53;1.15;;;21.60;93.40;;;;;;5028114;28;20029;-67
2022/07/19 05:26:59;;;;;;;4.28;1.67;;;21.60;93.30;;;;;;5029158;28;20041;-70
2022/07/19 05:29:24;;;;;;;3.00;1.35;;;21.70;93.20;;;;;;5031209;28;20029;-69
2022/07/19 05:31:50;;;;;;;2.45;1.00;;;21.80;92.50;;;;;;5027960;28;20033;-67
2022/07/19 05:34:16;;;;;;;6.43;1.17;;;22.00;92.70;;;;;;5026308;28;20050;-66
2022/07/19 05:36:41;;;;;;;11.95;2.30;;;22.00;92.20;;;;;;5021957;28;20045;-69
2022/07/19 05:39:07;;;;;;;14.50;2.25;;;22.20;91.90;;;;;;5026344;28;20030;-68
2022/07/19 05:41:33;;;;;;;8.85;1.85;;;22.30;91.80;;;;;;5025239;28;20545;-67
2022/07/19 05:43:58;;;;;;;4.57;1.60;;;22.40;91.60;;;;;;5026901;28;20068;-68
2022/07/19 05:46:24;;;;;;;7.32;1.60;;;22.50;91.90;;;;;;5027741;28;20055;-68
2022/07/19 05:48:50;;;;;;;7.07;1.30;;;22.50;91.90;;;;;;5025264;28;20045;-70
2022/07/19 05:51:16;;;;;;;3.47;1.20;;;22.60;91.30;;;;;;5025943;28;20494;-68
2022/07/19 05:53:42;;;;;;;2.42;1.00;;;22.80;90.80;;;;;;5027356;28;20033;-67
2022/07/19 05:56:08;;;;;;;6.03;1.10;;;23.10;91.00;;;;;;5026707;28;20124;-65
2022/07/19 05:58:33;;;;;;;6.47;1.25;;;23.40;90.20;;;;;;5024308;28;20112;-68
2022/07/19 06:01:17;;;;;;;5.93;1.25;;;23.90;88.70;;;;;;5025760;28;20122;-68
2022/07/19 06:03:47;;;;;;;3.65;1.10;;;24.30;88.00;;;;;;5023980;28;20025;-67
2022/07/19 06:06:14;;;;;;;3.22;1.38;;;24.50;86.70;;;;;;5028463;28;20036;-69
2022/07/19 06:08:40;;;;;;;4.75;1.80;;;24.70;86.80;;;;;;5026242;28;20083;-69
2022/07/19 06:11:06;;;;;;;4.00;0.90;;;24.90;84.00;;;;;;5023973;28;20030;-69
2022/07/19 06:13:31;;;;;;;2.10;1.00;;;25.10;83.60;;;;;;5024146;28;20040;-71
2022/07/19 06:15:57;;;;;;;9.52;1.33;;;25.30;84.00;;;;;;5026276;28;20538;-70
2022/07/19 06:18:23;;;;;;;6.35;1.52;;;25.40;84.30;;;;;;5027530;28;20030;-66
2022/07/19 06:20:48;;;;;;;9.20;1.83;;;25.40;83.50;;;;;;5026407;28;20041;-70
2022/07/19 06:23:14;;;;;;;4.78;1.65;;;25.60;83.20;;;;;;5025874;28;20132;-69
2022/07/19 06:25:39;;;;;;;9.00;2.50;;;25.80;82.50;;;;;;5028472;28;20525;-67
2022/07/19 06:28:05;;;;;;;14.18;1.75;;;25.80;82.70;;;;;;5026779;28;20053;-69
2022/07/19 06:30:31;;;;;;;6.30;1.30;;;25.80;83.30;;;;;;5023941;28;20490;-69
2022/07/19 06:32:57;;;;;;;9.43;1.40;;;25.90;82.80;;;;;;5025435;28;20490;-70
2022/07/19 06:35:22;;;;;;;4.85;1.58;;;26.00;81.40;;;;;;5025775;28;20128;-67
2022/07/19 06:37:48;;;;;;;12.18;2.05;;;26.00;82.40;;;;;;5023846;28;20029;-67
2022/07/19 06:40:14;;;;;;;5.80;1.73;;;26.10;81.90;;;;;;5024950;28;20034;-70
2022/07/19 06:42:40;;;;;;;6.78;1.80;;;26.30;81.90;;;;;;5023879;28;20392;-66
2022/07/19 06:45:06;;;;;;;5.75;1.45;;;26.40;81.50;;;;;;5024009;28;20060;-70
2022/07/19 06:47:32;;;;;;;7.30;1.95;;;26.50;81.20;;;;;;5029173;28;20026;-70
2022/07/19 06:49:58;;;;;;;4.03;1.80;;;26.60;82.50;;;;;;5029519;28;20041;-69
2022/07/19 06:52:24;;;;;;;2.20;1.35;;;26.90;81.10;;;;;;5029287;28;20033;-67
2022/07/19 06:54:50;;;;;;;4.85;2.03;;;27.10;84.10;;;;;;5027166;28;20503;-70
2022/07/19 06:57:16;;;;;;;9.00;2.20;;;27.40;82.70;;;;;;5030484;28;20120;-71
2022/07/19 06:59:41;;;;;;;6.55;1.70;;;27.70;82.20;;;;;;5028579;28;20118;-70
2022/07/19 07:02:07;;;;;;;8.10;2.03;;;28.00;81.60;;;;;;5030125;28;20104;-70
2022/07/19 07:04:33;;;;;;;4.80;1.50;;;28.20;81.60;;;;;;5028511;28;20053;-69
2022/07/19 07:06:58;;;;;;;10.30;1.98;;;28.40;79.70;;;;;;5030228;28;20032;-70
2022/07/19 07:09:24;;;;;;;3.83;1.70;;;28.60;86.90;;;;;;5028327;28;20620;-67
2022/07/19 07:11:49;;;;;;;4.90;1.50;;;28.80;80.30;;;;;;5028087;28;20067;-69
2022/07/19 07:14:15;;;;;;;7.43;1.70;;;29.00;76.80;;;;;;5031162;28;20029;-69
2022/07/19 07:16:41;;;;;;;7.45;1.60;;;29.30;77.90;;;;;;5028033;28;20030;-67
2022/07/19 07:19:06;;;;;;;4.25;1.42;;;29.70;79.10;;;;;;5029153;28;20044;-69
2022/07/19 07:21:34;;;;;;;5.47;1.73;;;30.10;74.40;;;;;;5029855;28;20489;-69
2022/07/19 07:24:01;;;;;;;3.35;1.60;;;30.40;75.50;;;;;;5028892;28;20029;-69
2022/07/19 07:26:27;;;;;;;3.28;1.00;;;30.80;73.70;;;;;;5031636;28;20040;-67
2022/07/19 07:28:52;;;;;;;4.40;1.48;;;31.00;74.80;;;;;;5029058;28;20124;-68
2022/07/19 07:31:18;;;;;;;3.28;1.42;;;31.30;72.60;;;;;;5029510;28;20029;-68
2022/07/19 07:33:44;;;;;;;6.88;2.17;;;31.70;76.30;;;;;;5028204;28;20045;-68
2022/07/19 07:36:09;;;;;;;7.70;1.75;;;32.10;78.40;;;;;;5029245;28;20030;-66
2022/07/19 07:38:35;;;;;;;7.55;1.60;;;32.80;75.80;;;;;;5027775;28;20045;-69
2022/07/19 07:41:00;;;;;;;3.83;1.40;;;33.40;69.70;;;;;;5031080;28;20041;-69
2022/07/19 07:43:26;;;;;;;9.95;1.85;;;33.90;73.10;;;;;;5027662;28;20037;-66
2022/07/19 07:45:51;;;;;;;7.75;1.98;;;34.10;71.10;;;;;;5028447;28;20025;-69
2022/07/19 07:48:17;;;;;;;4.20;2.13;;;34.60;70.70;;;;;;5026290;28;20597;-69
2022/07/19 07:50:42;;;;;;;6.72;1.85;;;35.30;65.30;;;;;;5029043;28;20025;-69
2022/07/19 07:53:08;;;;;;;4.55;1.80;;;36.00;66.10;;;;;;5028268;28;20028;-70
2022/07/19 07:55:38;;;;;;;5.50;1.88;;;36.10;62.50;;;;;;5027281;28;20041;-69
2022/07/19 07:58:04;;;;;;;10.25;1.95;;;36.30;61.80;;;;;;5027367;28;20025;-70
2022/07/19 08:00:30;;;;;;;11.00;3.20;;;36.30;63.40;;;;;;5027939;28;20034;-69
2022/07/19 08:02:55;;;;;;;4.95;1.85;;;36.30;61.40;;;;;;5027871;28;20053;-67
2022/07/19 08:05:22;;;;;;;8.40;2.28;;;36.10;60.90;;;;;;5028581;28;20033;-69
2022/07/19 08:07:47;;;;;;;4.28;1.98;;;36.20;60.50;;;;;;5026770;28;20145;-69
2022/07/19 08:10:13;;;;;;;9.75;2.30;;;35.80;60.60;;;;;;5029053;28;20464;-67
2022/07/19 08:12:38;;;;;;;3.60;1.55;;;35.40;60.90;;;;;;5027644;28;20033;-69
2022/07/19 08:15:05;;;;;;;4.95;1.70;;;34.60;60.60;;;;;;5026104;28;20037;-69
2022/07/19 08:17:30;;;;;;;5.28;1.30;;;34.30;61.40;;;;;;5028292;28;20034;-67
2022/07/19 08:19:56;;;;;;;3.95;1.25;;;33.90;62.70;;;;;;5028543;28;20052;-70
2022/07/19 08:22:21;;;;;;;5.78;1.65;;;33.50;62.50;;;;;;5027817;28;20120;-68
2022/07/19 08:24:47;;;;;;;5.47;1.42;;;33.20;62.60;;;;;;5027840;28;20038;-68
2022/07/19 08:27:13;;;;;;;4.45;1.55;;;32.90;63.60;;;;;;5027827;28;20057;-67
2022/07/19 08:29:39;;;;;;;4.43;1.25;;;32.70;64.50;;;;;;5027785;28;20056;-69
2022/07/19 08:32:05;;;;;;;4.35;1.50;;;32.70;63.90;;;;;;5027012;28;20501;-69
2022/07/19 08:34:30;;;;;;;2.85;1.58;;;32.50;64.00;;;;;;5027465;28;20037;-67
2022/07/19 08:36:56;;;;;;;4.72;1.15;;;32.30;65.30;;;;;;5027575;28;20053;-69
2022/07/19 08:39:22;;;;;;;5.53;1.80;;;32.20;67.60;;;;;;5027252;28;20040;-68
2022/07/19 08:41:48;;;;;;;4.65;1.60;;;32.20;67.20;;;;;;5027477;28;20030;-69
2022/07/19 08:44:16;;;;;;;5.55;1.88;;;32.20;67.60;;;;;;5027803;28;20029;-66
2022/07/19 08:46:42;;;;;;;7.13;1.50;;;32.20;68.90;;;;;;5026660;28;20064;-69
2022/07/19 08:49:11;;;;;;;3.88;1.05;;;32.20;68.10;;;;;;5023570;28;20037;-69
2022/07/19 08:51:37;;;;;;;2.80;0.90;;;32.20;68.20;;;;;;5026892;28;20033;-68
2022/07/19 08:54:03;;;;;;;7.78;1.23;;;32.20;68.30;;;;;;5027124;28;20111;-68
2022/07/19 08:59:13;;;;;;;5.20;1.35;;;32.30;66.90;;;;;;5024987;28;20044;-67
2022/07/19 09:01:39;;;;;;;9.57;1.60;;;32.20;66.50;;;;;;5026399;28;20030;-67
2022/07/19 09:04:05;;;;;;;2.50;1.10;;;32.20;66.10;;;;;;5025220;28;20034;-66
2022/07/19 09:06:48;;;;;;;4.47;1.60;;;32.20;66.50;;;;;;5027549;28;20538;-69
2022/07/19 09:09:36;;;;;;;5.18;1.42;;;32.20;65.30;;;;;;5023082;28;20037;-66
2022/07/19 09:12:03;;;;;;;3.03;1.50;;;32.20;65.90;;;;;;5026753;28;20041;-69
2022/07/19 09:14:38;;;;;;;4.32;1.13;;;32.10;65.20;;;;;;5025827;28;20044;-66
2022/07/19 09:17:19;;;;;;;9.52;1.55;;;32.00;66.70;;;;;;5023953;28;20052;-69
2022/07/19 09:19:46;;;;;;;4.75;1.10;;;32.10;66.40;;;;;;5027173;28;20383;-69
2022/07/19 09:22:17;;;;;;;2.13;1.05;;;32.20;67.50;;;;;;5026468;28;20102;-67
2022/07/19 09:24:45;;;;;;;11.02;1.27;;;32.20;65.00;;;;;;5025227;28;20037;-67
2022/07/19 09:27:19;;;;;;;7.57;1.83;;;32.20;67.20;;;;;;5027347;28;20042;-66
2022/07/19 09:29:46;;;;;;;8.85;1.38;;;32.30;65.10;;;;;;5026567;28;20076;-66
2022/07/19 09:32:19;;;;;;;3.40;1.35;;;32.40;64.10;;;;;;5024565;28;20032;-65
2022/07/19 09:34:57;;;;;;;5.10;1.42;;;32.50;65.00;;;;;;5022612;28;20102;-66
2022/07/19 09:37:28;;;;;;;2.25;1.10;;;32.60;65.30;;;;;;5024403;28;20032;-67
2022/07/19 09:40:03;;;;;;;10.93;1.70;;;32.60;65.60;;;;;;5022992;28;20056;-68
2022/07/19 09:42:38;;;;;;;12.35;1.30;;;32.70;66.60;;;;;;5021751;28;20034;-70
2022/07/19 09:45:13;;;;;;;6.20;1.13;;;32.80;62.10;;;;;;5024541;28;20095;-70
2022/07/19 09:47:43;;;;;;;6.43;1.25;;;32.90;62.20;;;;;;5025050;28;20049;-69
2022/07/19 09:50:17;;;;;;;26.13;1.33;;;33.00;62.50;;;;;;5022929;28;20033;-67
2022/07/19 09:52:44;;;;;;;2.25;0.90;;;33.00;62.90;;;;;;5023908;28;20708;-69
2022/07/19 09:55:11;;;;;;;4.97;1.02;;;33.10;62.30;;;;;;5023605;28;20029;-69
2022/07/19 09:57:41;;;;;;;3.80;1.25;;;33.10;61.80;;;;;;5023625;28;20026;-69
2022/07/19 10:00:08;;;;;;;5.68;1.25;;;33.10;59.90;;;;;;5024272;28;20442;-70
2022/07/19 10:02:37;;;;;;;4.30;1.50;;;33.20;60.10;;;;;;5022905;28;20037;-69
2022/07/19 10:05:04;;;;;;;4.00;1.10;;;33.30;59.70;;;;;;5024763;28;20120;-69
2022/07/19 10:07:32;;;;;;;7.35;1.40;;;33.40;61.20;;;;;;5023183;28;20128;-68
2022/07/19 10:10:03;;;;;;;2.20;1.10;;;33.50;61.30;;;;;;5023946;28;20044;-68
2022/07/19 10:12:29;;;;;;;2.38;1.08;;;33.50;59.60;;;;;;5024030;28;20061;-67
2022/07/19 10:14:55;;;;;;;5.65;1.30;;;33.60;59.70;;;;;;5023317;28;20045;-69
2022/07/19 10:17:37;;;;;;;2.60;1.10;;;33.70;58.80;;;;;;5023917;28;20030;-69
2022/07/19 10:20:06;;;;;;;4.15;1.42;;;33.70;58.10;;;;;;5022768;28;20033;-67
2022/07/19 10:22:33;;;;;;;3.43;0.90;;;33.80;58.10;;;;;;5023476;28;20117;-67
2022/07/19 10:25:12;;;;;;;3.65;0.90;;;33.90;58.00;;;;;;5025916;28;20029;-68
2022/07/19 10:27:55;;;;;;;2.22;0.90;;;33.80;57.90;;;;;;5026340;28;20053;-69
2022/07/19 10:30:23;;;;;;;3.33;0.90;;;33.90;57.20;;;;;;5022089;28;20040;-69
2022/07/19 10:32:52;;;;;;;5.15;1.52;;;34.00;57.20;;;;;;5024114;28;20453;-68
2022/07/19 10:35:30;;;;;;;7.63;1.73;;;34.00;58.30;;;;;;5019198;28;20038;-68
2022/07/19 10:38:02;;;;;;;3.85;1.20;;;34.20;58.40;;;;;;5025609;28;20146;-68
2022/07/19 10:40:40;;;;;;;4.60;1.30;;;34.20;59.30;;;;;;5024131;28;20406;-66
2022/07/19 10:43:22;;;;;;;6.10;1.07;;;34.30;58.50;;;;;;5024355;28;20041;-68
2022/07/19 10:45:59;;;;;;;6.25;1.33;;;34.40;58.80;;;;;;5025195;28;20303;-68
2022/07/19 10:48:41;;;;;;;3.65;1.40;;;34.50;57.90;;;;;;5021476;28;20045;-69
2022/07/19 10:51:11;;;;;;;9.50;0.93;;;34.60;57.10;;;;;;5021743;28;20045;-69
2022/07/19 10:53:39;;;;;;;2.60;0.90;;;34.50;57.50;;;;;;5024929;28;20044;-69
2022/07/19 10:56:34;;;;;;;3.70;1.00;;;34.60;58.20;;;;;;5025142;28;20033;-69
2022/07/19 10:59:11;;;;;;;5.25;1.10;;;34.60;58.20;;;;;;5022082;28;20817;-68
2022/07/19 11:01:38;;;;;;;5.40;1.13;;;34.80;59.20;;;;;;5024646;28;20101;-69
2022/07/19 11:04:31;;;;;;;3.35;0.85;;;34.90;57.90;;;;;;5025300;28;20398;-68
2022/07/19 11:07:15;;;;;;;3.25;1.13;;;35.00;58.40;;;;;;5018729;28;20040;-70
2022/07/19 11:09:55;;;;;;;18.13;1.58;;;35.00;58.50;;;;;;5021636;28;20045;-70
2022/07/19 11:12:25;;;;;;;4.80;1.38;;;35.10;57.60;;;;;;5022289;28;20037;-68
2022/07/19 11:14:51;;;;;;;3.63;1.40;;;35.10;57.30;;;;;;5021806;28;20039;-68
2022/07/19 11:17:17;;;;;;;5.95;1.40;;;35.10;57.70;;;;;;5022999;28;20040;-69
2022/07/19 11:20:05;;;;;;;15.18;1.58;;;35.10;59.90;;;;;;5028496;28;20044;-67
2022/07/19 11:22:46;;;;;;;2.55;0.90;;;35.20;58.30;;;;;;5023760;28;20148;-69
2022/07/19 11:25:14;;;;;;;3.17;1.48;;;35.20;56.30;;;;;;5026713;28;20033;-69
2022/07/19 11:27:41;;;;;;;6.10;1.08;;;35.20;57.30;;;;;;5025497;28;20037;-69
2022/07/19 11:30:08;;;;;;;4.57;1.13;;;35.20;57.20;;;;;;5025358;28;21638;-68
2022/07/19 11:32:34;;;;;;;6.63;1.20;;;35.20;56.00;;;;;;5028146;28;20513;-68
2022/07/19 11:35:02;;;;;;;6.93;0.98;;;35.20;55.00;;;;;;5029415;28;20029;-69
2022/07/19 11:37:31;;;;;;;1.33;0.65;;;35.20;55.10;;;;;;5029043;28;20115;-68
2022/07/19 11:39:57;;;;;;;2.73;1.00;;;35.20;55.50;;;;;;5030181;28;20036;-69
2022/07/19 11:42:39;;;;;;;5.38;1.25;;;35.20;55.70;;;;;;5029214;28;20268;-69
2022/07/19 11:45:08;;;;;;;5.55;1.52;;;35.20;56.50;;;;;;5025153;28;20029;-70
2022/07/19 11:47:34;;;;;;;6.15;1.35;;;35.10;57.30;;;;;;5029183;28;20036;-69
2022/07/19 11:50:07;;;;;;;3.47;1.20;;;35.20;56.70;;;;;;5031331;28;20029;-68
2022/07/19 11:52:48;;;;;;;6.28;1.27;;;35.20;57.80;;;;;;5029047;28;20448;-69
2022/07/19 11:55:17;;;;;;;2.22;1.05;;;35.20;57.20;;;;;;5027152;28;20037;-66
2022/07/19 11:57:43;;;;;;;6.05;0.90;;;35.20;58.40;;;;;;5026444;28;20037;-68
2022/07/19 12:00:11;;;;;;;1.88;0.60;;;35.30;58.70;;;;;;5027418;28;20037;-69
2022/07/19 12:03:02;;;;;;;7.00;0.80;;;35.30;56.00;;;;;;5028356;28;20175;-68
2022/07/19 12:05:29;;;;;;;4.82;1.27;;;35.30;56.60;;;;;;5025765;28;20040;-69
2022/07/19 12:07:59;;;;;;;13.73;1.55;;;35.30;56.80;;;;;;5026533;28;20048;-70
2022/07/19 12:10:54;;;;;;;3.83;1.10;;;35.30;56.30;;;;;;5026495;28;20553;-69
2022/07/19 12:13:32;;;;;;;6.10;1.10;;;35.30;57.30;;;;;;5022586;28;20563;-69
2022/07/19 12:16:06;;;;;;;8.48;1.27;;;35.30;56.00;;;;;;5028310;28;20055;-69
2022/07/19 12:18:52;;;;;;;6.43;0.90;;;35.30;55.50;;;;;;5028142;28;20045;-68
2022/07/19 12:21:21;;;;;;;1.73;0.80;;;35.30;54.90;;;;;;5027038;28;20089;-67
2022/07/19 12:24:08;;;;;;;1.80;0.70;;;35.20;54.80;;;;;;5029012;28;20036;-70
2022/07/19 12:26:34;;;;;;;1.75;0.88;;;35.20;55.40;;;;;;5026574;28;20045;-68
2022/07/19 12:29:00;;;;;;;4.35;0.77;;;35.10;55.50;;;;;;5027784;28;20424;-67
2022/07/19 12:31:25;;;;;;;1.67;0.82;;;35.10;55.50;;;;;;5026045;28;20409;-69
2022/07/19 12:34:01;;;;;;;7.97;0.85;;;35.10;55.70;;;;;;5028093;28;20048;-70
2022/07/19 12:36:37;;;;;;;3.10;1.00;;;35.10;55.70;;;;;;5027765;28;20029;-68
2022/07/19 12:39:03;;;;;;;3.67;0.80;;;35.10;55.60;;;;;;5027038;28;20057;-69
2022/07/19 12:41:29;;;;;;;3.92;0.98;;;35.00;55.70;;;;;;5027900;28;20025;-69
2022/07/19 12:43:55;;;;;;;5.55;1.20;;;35.00;56.40;;;;;;5027911;28;20043;-68
2022/07/19 12:46:20;;;;;;;8.68;1.10;;;34.90;56.00;;;;;;5025950;28;20056;-69
2022/07/19 12:48:46;;;;;;;4.70;0.73;;;34.90;55.70;;;;;;5027359;28;20116;-66
2022/07/19 12:51:11;;;;;;;6.57;1.10;;;35.00;55.70;;;;;;5027201;28;20030;-67